TimeCST,TemperatureF,Dew PointF,Humidity,Sea Level PressureIn,VisibilityMPH,Wind Direction,Wind SpeedMPH,Gust SpeedMPH,PrecipitationIn,Events,Conditions,WindDirDegrees,DateUTC
12:53 AM,28.9,25.0,85,30.41,8.0,North,3.5,-,N/A,,Clear,350,2013-01-18 06:53:00
1:53 AM,28.9,25.0,85,30.43,7.0,North,3.5,-,N/A,,Clear,360,2013-01-18 07:53:00
2:53 AM,28.0,25.0,88,30.43,6.0,Calm,Calm,-,N/A,,Clear,0,2013-01-18 08:53:00
3:53 AM,28.0,25.0,88,30.44,5.0,NNW,3.5,-,N/A,,Clear,340,2013-01-18 09:53:00
4:53 AM,27.0,25.0,92,30.44,4.0,North,4.6,-,N/A,,Clear,10,2013-01-18 10:53:00
5:53 AM,26.1,24.1,92,30.46,3.0,Calm,Calm,-,N/A,,Clear,0,2013-01-18 11:53:00
6:08 AM,26.6,24.8,93,30.42,2.5,Calm,Calm,-,N/A,,Scattered Clouds,0,2013-01-18 12:08:00
6:13 AM,26.6,24.8,93,30.43,3.0,Calm,Calm,-,N/A,,Mostly Cloudy,0,2013-01-18 12:13:00
6:43 AM,26.6,24.8,93,30.44,3.0,Calm,Calm,-,N/A,,Partly Cloudy,0,2013-01-18 12:43:00
6:50 AM,24.8,24.8,100,30.44,2.0,NE,3.5,-,N/A,,Partly Cloudy,40,2013-01-18 12:50:00
6:53 AM,25.0,23.0,92,30.49,1.8,Calm,Calm,-,N/A,,Partly Cloudy,0,2013-01-18 12:53:00
7:00 AM,24.8,23.0,93,30.45,2.5,Calm,Calm,-,N/A,,Clear,0,2013-01-18 13:00:00
7:16 AM,26.6,23.0,86,30.45,3.0,NNE,5.8,-,N/A,,Clear,20,2013-01-18 13:16:00
7:53 AM,27.0,21.9,81,30.51,10.0,NE,5.8,-,N/A,,Clear,40,2013-01-18 13:53:00
8:53 AM,28.9,21.9,75,30.53,10.0,ENE,5.8,-,N/A,,Clear,60,2013-01-18 14:53:00
9:53 AM,33.1,21.9,64,30.54,10.0,Calm,Calm,-,N/A,,Clear,0,2013-01-18 15:53:00
10:53 AM,37.0,21.9,54,30.52,10.0,Calm,Calm,-,N/A,,Clear,0,2013-01-18 16:53:00
11:53 AM,41.0,19.0,41,30.50,10.0,SW,5.8,-,N/A,,Clear,230,2013-01-18 17:53:00
12:53 PM,44.1,14.0,30,30.48,10.0,SSE,3.5,-,N/A,,Clear,150,2013-01-18 18:53:00
1:53 PM,46.0,15.1,29,30.48,10.0,SW,4.6,-,N/A,,Clear,230,2013-01-18 19:53:00
2:53 PM,46.0,17.1,31,30.47,10.0,SSE,4.6,-,N/A,,Clear,150,2013-01-18 20:53:00
3:53 PM,46.0,18.0,33,30.46,10.0,SSE,4.6,-,N/A,,Clear,160,2013-01-18 21:53:00
4:53 PM,42.1,19.0,40,30.45,10.0,Calm,Calm,-,N/A,,Clear,0,2013-01-18 22:53:00
5:53 PM,37.9,21.9,53,30.46,10.0,SSE,3.5,-,N/A,,Clear,160,2013-01-18 23:53:00
6:53 PM,36.0,23.0,59,30.47,10.0,Calm,Calm,-,N/A,,Clear,0,2013-01-19 00:53:00
7:53 PM,33.1,23.0,66,30.46,10.0,SSE,3.5,-,N/A,,Clear,160,2013-01-19 01:53:00
8:53 PM,33.1,21.0,61,30.45,10.0,Calm,Calm,-,N/A,,Clear,0,2013-01-19 02:53:00
9:53 PM,32.0,21.0,64,30.43,10.0,South,4.6,-,N/A,,Clear,170,2013-01-19 03:53:00
10:53 PM,35.1,24.1,64,30.40,10.0,South,4.6,-,N/A,,Clear,180,2013-01-19 04:53:00